Time;durP1;ratioP1;P1;durP2;ratioP2;P2;SDS_P1;SDS_P2;PMS_P1;PMS_P2;Temp;Humidity;BMP_temperature;BMP_pressure;BME280_temperature;BME280_humidity;BME280_pressure;Samples;Min_cycle;Max_cycle;Signal;HPM_P1;HPM_P2
2021/10/29 00:00:25;;;;;;;4.47;2.72;;;19.10;74.30;;;;;;6247101;23;20162;-80
2021/10/29 00:02:52;;;;;;;3.63;2.47;;;19.10;74.30;;;;;;6220548;23;20262;-82
2021/10/29 00:05:18;;;;;;;3.60;2.65;;;19.10;74.10;;;;;;6220199;23;20458;-80
2021/10/29 00:07:44;;;;;;;3.00;2.70;;;19.10;74.10;;;;;;6246733;23;20300;-79
2021/10/29 00:10:10;;;;;;;3.00;2.50;;;19.10;74.30;;;;;;6247083;23;20169;-81
2021/10/29 00:12:36;;;;;;;4.35;2.78;;;19.10;74.40;;;;;;6247044;23;20126;-82
2021/10/29 00:15:03;;;;;;;4.45;2.60;;;19.10;74.40;;;;;;6247296;23;20141;-80
2021/10/29 00:17:29;;;;;;;3.65;2.50;;;19.10;74.40;;;;;;6247716;23;20141;-79
2021/10/29 00:19:55;;;;;;;2.70;2.40;;;19.10;74.20;;;;;;6220089;23;20165;-81
2021/10/29 00:22:20;;;;;;;5.13;2.60;;;19.10;74.10;;;;;;6247490;23;20187;-80
2021/10/29 00:24:47;;;;;;;3.80;2.60;;;19.10;74.10;;;;;;6246940;23;20485;-82
2021/10/29 00:27:13;;;;;;;2.92;2.17;;;19.10;74.40;;;;;;6220322;23;20560;-81
2021/10/29 00:29:39;;;;;;;5.07;2.40;;;19.10;74.40;;;;;;6247303;23;20156;-81
2021/10/29 00:32:04;;;;;;;4.18;2.53;;;19.10;74.50;;;;;;6247092;23;20533;-81
2021/10/29 00:34:31;;;;;;;3.83;2.17;;;19.10;74.30;;;;;;6247128;23;20141;-79
2021/10/29 00:36:58;;;;;;;3.42;2.80;;;19.10;74.20;;;;;;6246868;23;20463;-82
2021/10/29 00:39:24;;;;;;;3.53;2.50;;;19.10;74.30;;;;;;6220295;23;20605;-81
2021/10/29 00:41:50;;;;;;;3.15;2.63;;;19.10;74.40;;;;;;6247674;23;20130;-80
2021/10/29 00:44:24;;;;;;;3.38;2.60;;;19.10;74.40;;;;;;6220310;23;20156;-80
2021/10/29 00:46:50;;;;;;;3.42;2.65;;;19.10;74.30;;;;;;6220349;23;20500;-81
2021/10/29 00:49:16;;;;;;;5.32;2.78;;;19.10;74.40;;;;;;6195459;23;20169;-79
2021/10/29 00:51:43;;;;;;;3.42;2.33;;;19.10;74.40;;;;;;6247426;23;20600;-81
2021/10/29 00:54:11;;;;;;;4.65;2.60;;;19.10;74.50;;;;;;6220159;23;20217;-81
2021/10/29 00:56:37;;;;;;;3.60;2.30;;;19.10;74.20;;;;;;6246734;23;20161;-82
2021/10/29 00:59:03;;;;;;;3.55;2.47;;;19.10;74.40;;;;;;6246468;23;20153;-79
2021/10/29 01:01:28;;;;;;;3.33;3.03;;;19.10;74.30;;;;;;6247221;23;20165;-80
2021/10/29 01:03:54;;;;;;;3.75;2.85;;;19.10;74.40;;;;;;6219989;23;20539;-81
2021/10/29 01:06:20;;;;;;;3.50;2.70;;;19.10;74.40;;;;;;6214241;23;20247;-82
2021/10/29 01:08:46;;;;;;;5.03;3.10;;;19.10;74.20;;;;;;6214868;23;20150;-81
2021/10/29 01:11:13;;;;;;;3.40;2.70;;;19.10;74.20;;;;;;6214871;23;20189;-80
2021/10/29 01:13:38;;;;;;;5.93;2.80;;;19.10;74.30;;;;;;6214772;23;20163;-82
2021/10/29 01:16:06;;;;;;;3.70;2.65;;;19.10;74.30;;;;;;6214774;23;20130;-81
2021/10/29 01:18:33;;;;;;;3.10;2.60;;;19.10;74.30;;;;;;6216182;23;20130;-79
2021/10/29 01:21:00;;;;;;;3.50;2.80;;;19.00;74.30;;;;;;6216272;23;20169;-79
2021/10/29 01:23:26;;;;;;;3.25;2.75;;;19.00;74.40;;;;;;6216505;23;20133;-80
2021/10/29 01:26:01;;;;;;;3.63;2.60;;;19.00;74.40;;;;;;6216259;23;20145;-81
2021/10/29 01:28:26;;;;;;;4.50;2.60;;;19.00;74.60;;;;;;6216065;23;20161;-80
2021/10/29 01:30:52;;;;;;;6.93;3.15;;;19.00;74.60;;;;;;6216235;23;20597;-82
2021/10/29 01:33:18;;;;;;;3.22;2.75;;;19.00;74.30;;;;;;6216559;23;20138;-79
2021/10/29 01:35:44;;;;;;;2.80;2.45;;;19.00;74.50;;;;;;6216562;23;20465;-79
2021/10/29 01:38:09;;;;;;;3.70;2.80;;;19.10;74.40;;;;;;6216063;23;20469;-79
2021/10/29 01:40:35;;;;;;;3.35;2.55;;;19.10;74.50;;;;;;6215841;23;20240;-80
2021/10/29 01:43:01;;;;;;;5.55;2.70;;;19.10;74.40;;;;;;6216183;23;20135;-79
2021/10/29 01:45:26;;;;;;;3.85;2.45;;;19.10;74.50;;;;;;6217973;23;20140;-79
2021/10/29 01:47:53;;;;;;;3.45;2.50;;;19.00;74.40;;;;;;6229192;23;20544;-78
2021/10/29 01:50:19;;;;;;;2.97;2.30;;;19.10;74.30;;;;;;6228540;23;20231;-78
2021/10/29 01:52:45;;;;;;;4.80;2.55;;;19.00;74.40;;;;;;6230797;23;20130;-78
2021/10/29 01:55:13;;;;;;;4.30;2.90;;;19.00;74.40;;;;;;6232090;23;20137;-78
2021/10/29 01:57:44;;;;;;;4.25;2.80;;;19.00;74.40;;;;;;6231998;23;20137;-78
2021/10/29 02:00:11;;;;;;;5.50;2.85;;;19.00;74.30;;;;;;6232847;23;20162;-78
2021/10/29 02:02:41;;;;;;;3.67;2.60;;;19.00;74.30;;;;;;6231037;23;20134;-78
2021/10/29 02:05:08;;;;;;;2.90;2.47;;;19.00;74.40;;;;;;6205826;23;20147;-78
2021/10/29 02:07:33;;;;;;;3.10;2.53;;;19.00;74.30;;;;;;6230686;23;20189;-78
2021/10/29 02:10:00;;;;;;;5.68;2.83;;;19.00;74.30;;;;;;6231184;23;20141;-78
2021/10/29 02:12:26;;;;;;;3.97;3.20;;;19.00;74.30;;;;;;6230171;23;20194;-78
2021/10/29 02:14:53;;;;;;;4.43;2.95;;;19.00;74.30;;;;;;6232527;23;20127;-78
2021/10/29 02:17:23;;;;;;;3.70;2.85;;;19.00;74.50;;;;;;6231555;23;20142;-78
2021/10/29 02:19:49;;;;;;;3.65;2.80;;;19.00;74.60;;;;;;6230788;23;20170;-78
2021/10/29 02:22:15;;;;;;;4.28;3.08;;;19.00;74.30;;;;;;6230622;23;20134;-77
2021/10/29 02:24:41;;;;;;;3.83;2.85;;;19.10;74.50;;;;;;6205134;23;20150;-78
2021/10/29 02:27:09;;;;;;;3.95;2.60;;;19.00;74.40;;;;;;6206054;23;20205;-78
2021/10/29 02:29:35;;;;;;;4.88;2.67;;;19.00;74.40;;;;;;6230747;23;20146;-78
2021/10/29 02:32:00;;;;;;;3.10;2.38;;;19.00;74.30;;;;;;6205693;23;20177;-77
2021/10/29 02:34:30;;;;;;;3.88;2.80;;;19.00;74.40;;;;;;6230197;23;20131;-79
2021/10/29 02:36:57;;;;;;;5.97;2.92;;;18.90;74.30;;;;;;6205723;23;20165;-78
2021/10/29 02:39:23;;;;;;;4.32;2.70;;;19.00;74.20;;;;;;6205497;23;20189;-78
2021/10/29 02:41:50;;;;;;;4.18;2.70;;;19.00;74.40;;;;;;6230860;23;20255;-79
2021/10/29 02:44:19;;;;;;;3.40;2.60;;;19.00;74.40;;;;;;6205977;23;20174;-79
2021/10/29 02:46:45;;;;;;;4.38;2.90;;;18.90;74.30;;;;;;6205014;23;20145;-78
2021/10/29 02:49:10;;;;;;;4.28;2.88;;;18.90;74.40;;;;;;6206089;23;20154;-78
2021/10/29 02:51:37;;;;;;;4.22;3.00;;;18.90;74.40;;;;;;6204983;23;20142;-78
2021/10/29 02:54:05;;;;;;;3.08;2.53;;;19.00;74.40;;;;;;6230759;23;20134;-78
2021/10/29 02:56:31;;;;;;;4.88;2.80;;;19.00;74.50;;;;;;6205769;23;20146;-78
2021/10/29 02:58:57;;;;;;;3.35;2.70;;;18.90;74.50;;;;;;6229952;23;20134;-78
2021/10/29 03:01:25;;;;;;;3.55;2.70;;;18.90;74.30;;;;;;6204777;23;20173;-78
2021/10/29 03:03:50;;;;;;;5.65;3.13;;;18.90;74.40;;;;;;6205545;23;20161;-78
2021/10/29 03:06:16;;;;;;;4.25;3.25;;;19.00;74.30;;;;;;6229432;23;20206;-78
2021/10/29 03:08:42;;;;;;;5.78;3.20;;;18.90;74.40;;;;;;6205358;23;20138;-78
2021/10/29 03:11:08;;;;;;;4.50;2.70;;;18.90;74.10;;;;;;6229888;23;20253;-78
2021/10/29 03:13:36;;;;;;;3.70;2.83;;;19.00;73.90;;;;;;6204642;23;20145;-78
2021/10/29 03:16:04;;;;;;;4.78;3.13;;;18.90;73.90;;;;;;6205497;23;20178;-79
2021/10/29 03:18:31;;;;;;;3.72;3.00;;;18.90;73.90;;;;;;6229645;23;20145;-78
2021/10/29 03:20:57;;;;;;;4.28;2.92;;;19.00;73.70;;;;;;6204858;23;20208;-79
2021/10/29 03:23:23;;;;;;;3.58;2.45;;;19.00;73.30;;;;;;6205000;23;20178;-78
2021/10/29 03:25:49;;;;;;;4.10;3.05;;;19.00;72.90;;;;;;6204795;23;20134;-78
2021/10/29 03:28:15;;;;;;;3.20;2.70;;;19.10;72.50;;;;;;6230103;23;20157;-78
2021/10/29 03:30:43;;;;;;;4.05;3.10;;;19.20;72.50;;;;;;6205252;23;20188;-78
2021/10/29 03:33:09;;;;;;;3.45;2.75;;;19.10;72.30;;;;;;6205352;23;20145;-78
2021/10/29 03:35:37;;;;;;;4.78;3.30;;;19.20;72.10;;;;;;6229493;23;20146;-78
2021/10/29 03:38:21;;;;;;;3.85;3.00;;;19.20;71.80;;;;;;6229255;23;20134;-78
2021/10/29 03:40:54;;;;;;;3.30;3.00;;;19.10;72.40;;;;;;6230058;23;20177;-78
2021/10/29 03:43:27;;;;;;;3.78;3.08;;;19.20;72.10;;;;;;6206993;23;20142;-78
2021/10/29 03:46:00;;;;;;;4.22;2.90;;;19.20;71.80;;;;;;6205369;23;20134;-78
2021/10/29 03:48:40;;;;;;;3.83;2.95;;;19.20;72.00;;;;;;6207145;23;20144;-78
2021/10/29 03:51:18;;;;;;;4.07;3.20;;;19.20;71.50;;;;;;6207347;23;20212;-78
2021/10/29 03:53:50;;;;;;;3.75;2.70;;;19.20;71.60;;;;;;6230693;23;20192;-78
2021/10/29 03:56:19;;;;;;;4.50;3.30;;;19.20;71.60;;;;;;6205467;23;20138;-78
2021/10/29 03:58:47;;;;;;;4.75;3.35;;;19.20;71.40;;;;;;6204649;23;20161;-78
2021/10/29 04:01:14;;;;;;;4.18;3.15;;;19.20;71.00;;;;;;6229452;23;20169;-78
2021/10/29 04:03:39;;;;;;;4.30;3.30;;;19.20;70.40;;;;;;6204274;23;20154;-78
2021/10/29 04:06:05;;;;;;;5.07;2.90;;;19.30;71.00;;;;;;6208211;23;20256;-79
2021/10/29 04:08:32;;;;;;;3.33;3.03;;;19.30;71.20;;;;;;6209864;23;20160;-78
2021/10/29 04:10:59;;;;;;;5.15;3.15;;;19.30;71.30;;;;;;6235344;23;20156;-78
2021/10/29 04:13:28;;;;;;;3.58;2.95;;;19.30;71.00;;;;;;6234530;23;20232;-79
2021/10/29 04:15:54;;;;;;;4.00;3.25;;;19.30;71.10;;;;;;6235482;23;20129;-78
2021/10/29 04:18:26;;;;;;;3.92;3.00;;;19.30;71.60;;;;;;6234599;23;20133;-78
2021/10/29 04:20:52;;;;;;;4.40;3.25;;;19.30;70.70;;;;;;6234786;23;20169;-78
2021/10/29 04:23:17;;;;;;;4.60;3.33;;;19.30;70.70;;;;;;6209806;23;20553;-78
2021/10/29 04:25:44;;;;;;;3.92;3.45;;;19.30;70.10;;;;;;6208765;23;20188;-78
2021/10/29 04:28:12;;;;;;;4.78;3.38;;;19.40;70.30;;;;;;6234669;23;20134;-78
2021/10/29 04:30:41;;;;;;;4.07;3.35;;;19.40;70.00;;;;;;6210024;23;20236;-78
2021/10/29 04:33:08;;;;;;;3.72;3.00;;;19.40;70.30;;;;;;6210018;23;20192;-78
2021/10/29 04:35:34;;;;;;;4.25;3.25;;;19.40;70.30;;;;;;6208914;23;20141;-78
2021/10/29 04:38:00;;;;;;;3.60;3.03;;;19.40;70.20;;;;;;6261227;23;20676;-78
2021/10/29 04:40:28;;;;;;;4.47;3.40;;;19.40;70.00;;;;;;6209870;23;20616;-78
2021/10/29 04:42:54;;;;;;;4.70;3.45;;;19.30;70.00;;;;;;6209593;23;20180;-78
2021/10/29 04:45:21;;;;;;;3.78;3.40;;;19.40;70.40;;;;;;6260778;23;20133;-78
2021/10/29 04:47:48;;;;;;;4.82;3.53;;;19.40;69.20;;;;;;6261096;23;20160;-78
2021/10/29 04:50:14;;;;;;;4.15;3.47;;;19.40;69.70;;;;;;6207392;23;20145;-77
2021/10/29 04:52:40;;;;;;;3.75;3.10;;;19.40;69.50;;;;;;6233951;23;20129;-78
2021/10/29 04:55:06;;;;;;;4.07;3.40;;;19.40;69.40;;;;;;6233552;23;20557;-77
2021/10/29 04:57:32;;;;;;;3.85;3.25;;;19.40;69.10;;;;;;6234094;23;20156;-78
2021/10/29 05:00:00;;;;;;;3.50;3.03;;;19.40;69.60;;;;;;6207797;23;20228;-79
2021/10/29 05:02:27;;;;;;;4.78;3.00;;;19.40;69.30;;;;;;6234539;23;20153;-78
2021/10/29 05:04:52;;;;;;;4.53;3.15;;;19.50;69.30;;;;;;6233706;23;20564;-80
2021/10/29 05:07:20;;;;;;;4.15;3.03;;;19.50;69.00;;;;;;6233763;23;20185;-77
2021/10/29 05:09:47;;;;;;;4.90;3.28;;;19.50;68.90;;;;;;6233939;23;20141;-78
2021/10/29 05:12:15;;;;;;;3.72;3.20;;;19.50;69.60;;;;;;6230429;23;20140;-82
2021/10/29 05:14:42;;;;;;;3.47;3.17;;;19.50;68.90;;;;;;6223957;23;20130;-80
2021/10/29 05:17:09;;;;;;;4.30;3.13;;;19.50;68.70;;;;;;6226061;23;20134;-80
2021/10/29 05:19:35;;;;;;;4.20;3.50;;;19.50;68.90;;;;;;6199338;23;20181;-78
2021/10/29 05:22:03;;;;;;;4.72;3.10;;;19.50;68.90;;;;;;6233677;23;20197;-79
2021/10/29 05:24:29;;;;;;;4.38;3.50;;;19.50;68.40;;;;;;6259285;23;20134;-77
2021/10/29 05:26:55;;;;;;;3.90;3.50;;;19.50;69.10;;;;;;6259648;23;20137;-78
2021/10/29 05:29:22;;;;;;;4.20;3.53;;;19.50;68.70;;;;;;6260223;23;20134;-78
2021/10/29 05:31:50;;;;;;;4.63;3.03;;;19.50;68.80;;;;;;6260747;23;20140;-78
2021/10/29 05:34:19;;;;;;;3.92;3.22;;;19.50;68.70;;;;;;6259571;23;20557;-80
2021/10/29 05:36:45;;;;;;;4.85;3.30;;;19.50;68.50;;;;;;6225234;23;20134;-80
2021/10/29 05:39:13;;;;;;;4.28;3.22;;;19.40;68.40;;;;;;6199869;23;20141;-80
2021/10/29 05:41:39;;;;;;;3.35;3.05;;;19.50;68.80;;;;;;6224615;23;20137;-80
2021/10/29 05:44:07;;;;;;;4.50;3.58;;;19.50;68.40;;;;;;6225330;23;20490;-81
2021/10/29 05:46:39;;;;;;;3.80;3.40;;;19.50;68.50;;;;;;6249643;23;20133;-81
2021/10/29 05:49:09;;;;;;;4.30;3.50;;;19.50;68.70;;;;;;6249695;23;20141;-80
2021/10/29 05:51:39;;;;;;;4.30;3.30;;;19.50;67.90;;;;;;6248439;23;20126;-82
2021/10/29 05:54:14;;;;;;;4.38;3.17;;;19.50;68.10;;;;;;6249151;23;20130;-81
2021/10/29 05:56:40;;;;;;;3.65;3.30;;;19.50;68.10;;;;;;6248021;23;20125;-81
2021/10/29 05:59:06;;;;;;;4.00;3.25;;;19.60;68.20;;;;;;6248273;23;20522;-81
2021/10/29 06:01:32;;;;;;;4.20;3.50;;;19.60;68.40;;;;;;6250381;23;20133;-80
2021/10/29 06:03:58;;;;;;;3.63;3.28;;;19.60;68.30;;;;;;6224973;23;20554;-81
2021/10/29 06:06:24;;;;;;;4.00;3.22;;;19.50;68.40;;;;;;6247673;23;20224;-82
2021/10/29 06:08:51;;;;;;;5.10;3.60;;;19.50;68.50;;;;;;6248103;23;20133;-80
2021/10/29 06:11:17;;;;;;;5.25;3.75;;;19.60;68.00;;;;;;6222188;23;20138;-80
2021/10/29 06:13:49;;;;;;;4.38;3.30;;;19.60;67.90;;;;;;6248711;23;20553;-80
2021/10/29 06:16:14;;;;;;;4.28;3.50;;;19.50;68.40;;;;;;6248699;23;20134;-80
2021/10/29 06:18:40;;;;;;;4.85;3.50;;;19.50;68.10;;;;;;6223223;23;20153;-79
2021/10/29 06:21:06;;;;;;;4.38;3.60;;;19.60;68.20;;;;;;6198799;23;20181;-81
2021/10/29 06:23:40;;;;;;;3.88;3.47;;;19.50;68.30;;;;;;6252260;23;20141;-81
2021/10/29 06:26:18;;;;;;;4.05;3.50;;;19.50;68.40;;;;;;6252495;23;20180;-82
2021/10/29 06:28:45;;;;;;;4.32;3.72;;;19.60;67.70;;;;;;6250703;23;20134;-81
2021/10/29 06:31:12;;;;;;;5.13;3.60;;;19.60;68.30;;;;;;6255020;23;20134;-78
2021/10/29 06:33:41;;;;;;;5.20;3.67;;;19.60;68.00;;;;;;6234418;23;20138;-79
2021/10/29 06:36:09;;;;;;;4.78;3.53;;;19.50;68.00;;;;;;6260728;23;20134;-78
2021/10/29 06:38:37;;;;;;;4.10;3.40;;;19.60;67.90;;;;;;6234725;23;20613;-78
2021/10/29 06:41:03;;;;;;;3.75;3.30;;;19.50;68.00;;;;;;6234818;23;20176;-78
2021/10/29 06:43:33;;;;;;;4.20;3.55;;;19.60;67.90;;;;;;6236743;23;20149;-79
2021/10/29 06:46:22;;;;;;;5.22;4.00;;;19.60;67.80;;;;;;6211510;23;20134;-78
2021/10/29 06:48:53;;;;;;;4.88;3.63;;;19.60;67.60;;;;;;6239355;23;20228;-78
2021/10/29 06:59:48;;;;;;;3.65;3.15;;;19.60;67.50;;;;;;6238825;23;20727;-78
2021/10/29 07:42:28;;;;;;;4.72;3.35;;;19.60;67.60;;;;;;6230245;23;20141;-78
2021/10/29 07:44:53;;;;;;;4.97;3.50;;;19.60;68.00;;;;;;6204388;23;20146;-78
2021/10/29 07:47:21;;;;;;;4.88;3.60;;;19.60;67.40;;;;;;6205418;23;20134;-78
2021/10/29 07:49:49;;;;;;;4.50;3.30;;;19.60;66.80;;;;;;6203941;23;20606;-78
2021/10/29 07:52:15;;;;;;;4.25;3.50;;;19.60;67.10;;;;;;6203453;23;20196;-80
2021/10/29 07:54:44;;;;;;;4.78;3.65;;;19.70;67.50;;;;;;6195384;23;20589;-80
2021/10/29 07:57:12;;;;;;;4.03;3.28;;;19.70;66.90;;;;;;6220987;23;20154;-78
2021/10/29 07:59:39;;;;;;;4.03;3.30;;;19.70;67.30;;;;;;6220464;23;20197;-79
2021/10/29 08:02:05;;;;;;;3.50;3.08;;;19.60;67.20;;;;;;6221996;23;20135;-80
2021/10/29 08:04:32;;;;;;;5.18;3.65;;;19.60;67.10;;;;;;6220148;23;20141;-79
2021/10/29 08:06:57;;;;;;;5.45;3.30;;;19.60;66.90;;;;;;6232476;23;20235;-81
2021/10/29 08:09:27;;;;;;;4.50;3.40;;;19.60;68.00;;;;;;6251734;23;20142;-79
2021/10/29 08:11:54;;;;;;;4.10;3.30;;;19.70;67.90;;;;;;6251579;23;20161;-82
2021/10/29 08:14:22;;;;;;;4.93;3.50;;;19.60;67.70;;;;;;6251995;23;20138;-78
2021/10/29 08:16:49;;;;;;;4.18;3.30;;;19.60;67.30;;;;;;6225325;23;20134;-78
2021/10/29 08:19:20;;;;;;;5.13;3.78;;;19.70;67.60;;;;;;6225020;23;20540;-80
2021/10/29 08:21:46;;;;;;;4.07;3.13;;;19.70;67.20;;;;;;6227158;23;20145;-78
2021/10/29 08:24:13;;;;;;;4.72;3.58;;;19.60;67.20;;;;;;6252593;23;20129;-80
2021/10/29 08:26:38;;;;;;;4.18;3.40;;;19.70;66.90;;;;;;6201151;23;20207;-79
2021/10/29 08:29:04;;;;;;;4.28;3.42;;;19.70;66.70;;;;;;6252063;23;20561;-80
2021/10/29 08:31:31;;;;;;;4.28;3.75;;;19.60;66.70;;;;;;6201844;23;20145;-79
2021/10/29 08:34:00;;;;;;;4.93;4.20;;;19.70;67.10;;;;;;6252682;23;20138;-79
2021/10/29 08:36:26;;;;;;;4.35;3.63;;;19.60;65.20;;;;;;6251780;23;20165;-81
2021/10/29 08:38:52;;;;;;;4.22;3.58;;;19.70;64.60;;;;;;6224372;23;20134;-78
2021/10/29 08:41:18;;;;;;;4.55;3.33;;;19.70;66.00;;;;;;6223605;23;20258;-79
2021/10/29 08:43:44;;;;;;;5.22;3.72;;;19.70;65.80;;;;;;6223861;23;20133;-79
2021/10/29 08:46:10;;;;;;;4.38;3.58;;;19.70;65.60;;;;;;6250232;23;20130;-79
2021/10/29 08:48:37;;;;;;;5.00;3.90;;;19.70;65.00;;;;;;6250777;23;20169;-81
2021/10/29 08:51:03;;;;;;;5.10;3.78;;;19.70;65.50;;;;;;6250565;23;20472;-83
2021/10/29 08:53:29;;;;;;;5.10;3.42;;;19.70;65.50;;;;;;6251079;23;20138;-79
2021/10/29 08:56:00;;;;;;;5.30;3.83;;;19.70;66.70;;;;;;6249521;23;20140;-81
2021/10/29 08:58:30;;;;;;;6.05;4.20;;;19.70;65.20;;;;;;6249064;23;20457;-82
2021/10/29 09:01:04;;;;;;;6.57;4.07;;;19.70;65.40;;;;;;6248604;23;20169;-80
2021/10/29 09:03:41;;;;;;;4.50;3.45;;;19.70;65.00;;;;;;6222696;23;20619;-80
2021/10/29 09:09:08;;;;;;;5.07;3.90;;;19.70;66.30;;;;;;6249988;23;20167;-80
2021/10/29 09:11:52;;;;;;;5.60;3.90;;;19.70;66.70;;;;;;6250659;23;20136;-79
2021/10/29 09:17:29;;;;;;;4.88;3.80;;;19.70;66.70;;;;;;6224747;23;20157;-79
2021/10/29 09:33:57;;;;;;;4.45;3.78;;;19.70;66.70;;;;;;6247970;23;20243;-78
2021/10/29 09:36:39;;;;;;;4.68;3.88;;;19.70;66.60;;;;;;6222173;23;20553;-79
2021/10/29 09:39:13;;;;;;;5.85;3.58;;;19.70;66.80;;;;;;6256689;23;20164;-79
2021/10/29 09:41:39;;;;;;;4.65;3.40;;;19.70;66.80;;;;;;6231311;23;20137;-79
2021/10/29 09:44:08;;;;;;;5.03;3.75;;;19.70;66.60;;;;;;6230735;23;20159;-80
2021/10/29 09:46:40;;;;;;;4.63;3.60;;;19.70;66.60;;;;;;6230880;23;20137;-78
2021/10/29 09:49:19;;;;;;;4.50;3.60;;;19.70;66.60;;;;;;6230939;23;20153;-78
2021/10/29 09:51:53;;;;;;;4.93;3.80;;;19.70;66.50;;;;;;6208439;23;20572;-78
2021/10/29 09:54:32;;;;;;;4.68;3.85;;;19.70;66.60;;;;;;6232987;23;20126;-78
2021/10/29 09:57:02;;;;;;;5.05;3.95;;;19.70;66.20;;;;;;6234363;23;20145;-79
2021/10/29 09:59:30;;;;;;;4.65;3.65;;;19.70;66.70;;;;;;6230861;23;20558;-79
2021/10/29 10:01:56;;;;;;;4.40;3.53;;;19.80;66.00;;;;;;6257544;23;20126;-79
2021/10/29 10:04:21;;;;;;;4.60;3.95;;;19.70;66.60;;;;;;6259083;23;20209;-78
2021/10/29 10:06:47;;;;;;;4.55;3.72;;;19.70;66.30;;;;;;6225919;23;20221;-78
2021/10/29 10:09:13;;;;;;;5.88;4.10;;;19.70;66.30;;;;;;6225333;23;20138;-77
2021/10/29 10:11:40;;;;;;;5.55;3.67;;;19.70;65.10;;;;;;6229316;23;20134;-78
2021/10/29 10:14:09;;;;;;;5.38;3.83;;;19.70;65.70;;;;;;6203807;23;20146;-78
2021/10/29 10:16:35;;;;;;;5.55;4.10;;;19.70;65.90;;;;;;6228915;23;20162;-78
2021/10/29 10:19:01;;;;;;;5.18;3.80;;;19.80;66.10;;;;;;6228554;23;20137;-77
2021/10/29 10:21:29;;;;;;;5.05;4.05;;;19.80;66.10;;;;;;6230723;23;20139;-77
2021/10/29 10:23:56;;;;;;;6.05;4.20;;;19.80;65.90;;;;;;6230373;23;20127;-77
2021/10/29 10:26:30;;;;;;;4.60;3.30;;;19.70;65.70;;;;;;6230009;23;20570;-78
2021/10/29 10:40:31;;;;;;;4.65;3.90;;;19.70;66.20;;;;;;6115460;23;20187;-78
2021/10/29 10:43:23;;;;;;;5.78;4.07;;;19.70;66.50;;;;;;6118500;23;20155;-78
2021/10/29 10:45:50;;;;;;;5.70;3.75;;;19.70;66.00;;;;;;6120356;23;20156;-77
2021/10/29 10:48:29;;;;;;;5.72;3.83;;;19.80;66.00;;;;;;6137816;23;20139;-80
2021/10/29 10:51:40;;;;;;;5.40;3.72;;;19.80;65.80;;;;;;6110251;23;20216;-77
2021/10/29 10:54:16;;;;;;;5.38;4.10;;;19.80;66.20;;;;;;6110821;23;20132;-79
2021/10/29 10:57:18;;;;;;;5.53;3.70;;;19.70;66.20;;;;;;6133722;23;20148;-78
2021/10/29 11:00:25;;;;;;;5.57;4.03;;;19.70;66.10;;;;;;6113034;23;20256;-79
2021/10/29 11:03:20;;;;;;;6.10;3.90;;;19.70;66.10;;;;;;6112149;23;20503;-79
2021/10/29 11:05:58;;;;;;;4.93;3.90;;;19.80;66.30;;;;;;6129247;23;20164;-80
2021/10/29 11:11:19;;;;;;;5.82;4.40;;;19.70;65.80;;;;;;6170234;23;20264;-77
2021/10/29 11:13:50;;;;;;;4.35;3.50;;;19.70;65.00;;;;;;6166897;23;20189;-79
2021/10/29 11:16:29;;;;;;;4.00;3.60;;;19.80;65.70;;;;;;6141475;23;20598;-78
2021/10/29 11:19:07;;;;;;;6.00;3.75;;;19.70;66.10;;;;;;6166304;23;20178;-79
2021/10/29 11:21:35;;;;;;;5.38;4.28;;;19.70;65.30;;;;;;6219874;23;20582;-80
2021/10/29 11:24:04;;;;;;;5.95;4.13;;;19.80;65.30;;;;;;6221092;23;20122;-80
2021/10/29 11:26:36;;;;;;;6.25;4.10;;;19.80;65.20;;;;;;6221836;23;20127;-78
2021/10/29 11:29:03;;;;;;;4.65;3.85;;;19.80;65.70;;;;;;6225140;23;20200;-78
2021/10/29 11:31:31;;;;;;;5.22;3.90;;;19.80;65.20;;;;;;6223717;23;20134;-79
2021/10/29 11:33:59;;;;;;;6.15;4.00;;;19.80;65.60;;;;;;6223987;23;20137;-79
2021/10/29 11:36:27;;;;;;;5.07;3.33;;;19.80;65.20;;;;;;6224219;23;20165;-78
2021/10/29 11:38:54;;;;;;;4.93;3.80;;;19.80;65.10;;;;;;6197048;23;20135;-80
2021/10/29 11:41:23;;;;;;;5.35;3.70;;;19.80;65.60;;;;;;6220372;23;20479;-81
2021/10/29 11:43:49;;;;;;;5.28;4.10;;;19.80;65.80;;;;;;6220044;23;20161;-81
2021/10/29 11:46:17;;;;;;;5.50;4.30;;;19.80;65.00;;;;;;6219765;23;20578;-81
2021/10/29 11:49:05;;;;;;;5.57;4.30;;;19.80;65.20;;;;;;6222704;23;20130;-81
2021/10/29 11:51:32;;;;;;;5.35;4.00;;;19.80;65.40;;;;;;6222339;23;20138;-80
2021/10/29 11:54:10;;;;;;;5.43;3.88;;;19.80;65.40;;;;;;6221994;23;20127;-81
2021/10/29 11:56:41;;;;;;;5.43;3.95;;;19.80;65.60;;;;;;6222360;23;20240;-79
2021/10/29 11:59:27;;;;;;;5.88;4.00;;;19.80;65.60;;;;;;6197957;23;20129;-79
2021/10/29 12:07:26;;;;;;;5.47;3.88;;;19.80;65.70;;;;;;6238285;23;20295;-80
2021/10/29 12:09:54;;;;;;;5.70;4.05;;;19.80;65.30;;;;;;6224487;23;20191;-79
2021/10/29 12:12:23;;;;;;;5.15;3.88;;;19.80;65.30;;;;;;6226111;23;20213;-79
2021/10/29 12:14:50;;;;;;;6.00;4.05;;;19.80;65.00;;;;;;6226866;23;20159;-78
2021/10/29 12:17:23;;;;;;;5.47;4.18;;;19.80;64.90;;;;;;6225086;23;20133;-80
2021/10/29 12:19:53;;;;;;;5.22;4.07;;;19.80;65.30;;;;;;6224473;23;20254;-80
2021/10/29 12:22:31;;;;;;;5.13;4.13;;;19.80;64.90;;;;;;6250655;23;20141;-80
2021/10/29 12:25:07;;;;;;;4.82;4.07;;;19.80;65.60;;;;;;6250575;23;20212;-81
2021/10/29 12:27:39;;;;;;;5.00;3.83;;;19.80;65.60;;;;;;6252402;23;20208;-79
2021/10/29 12:30:16;;;;;;;5.47;4.00;;;19.80;65.70;;;;;;6252752;23;20157;-81
2021/10/29 12:33:05;;;;;;;5.75;4.40;;;19.80;65.00;;;;;;6252663;23;20142;-79
2021/10/29 12:38:34;;;;;;;4.50;3.63;;;19.70;65.80;;;;;;6230344;23;20508;-80
2021/10/29 12:52:20;;;;;;;6.60;5.03;;;19.70;65.40;;;;;;6229678;23;20148;-79
2021/10/29 13:02:55;;;;;;;6.53;4.18;;;19.70;65.40;;;;;;6254324;23;20577;-80
2021/10/29 13:05:21;;;;;;;5.07;4.05;;;19.70;66.10;;;;;;6255516;23;20208;-79
2021/10/29 13:07:47;;;;;;;5.50;4.20;;;19.60;65.70;;;;;;6221850;23;20244;-78
2021/10/29 13:10:13;;;;;;;5.85;4.40;;;19.70;65.90;;;;;;6221038;23;20137;-79
2021/10/29 13:12:48;;;;;;;5.57;4.20;;;19.70;65.60;;;;;;6220583;23;20454;-80
2021/10/29 13:15:16;;;;;;;7.00;4.90;;;19.70;65.20;;;;;;6221437;23;20137;-78
2021/10/29 13:17:56;;;;;;;5.63;4.47;;;19.70;65.60;;;;;;6221740;23;20450;-78
2021/10/29 13:26:30;;;;;;;6.13;4.50;;;19.70;65.90;;;;;;6226612;23;20142;-78
2021/10/29 13:36:46;;;;;;;7.28;4.28;;;19.60;65.60;;;;;;6223936;23;20133;-79
2021/10/29 13:52:43;;;;;;;6.00;5.10;;;19.70;65.40;;;;;;6219939;23;20134;-79
2021/10/29 13:55:18;;;;;;;6.93;5.15;;;19.70;65.40;;;;;;6219494;23;20165;-79
2021/10/29 13:58:05;;;;;;;7.63;5.50;;;19.60;63.90;;;;;;6163752;23;20193;-80
2021/10/29 14:01:04;;;;;;;7.10;5.05;;;19.70;64.30;;;;;;6166466;23;20297;-79
2021/10/29 14:03:32;;;;;;;6.07;4.65;;;19.70;64.60;;;;;;6166550;23;20605;-82
2021/10/29 14:30:07;;;;;;;8.55;5.60;;;19.70;64.60;;;;;;6218521;23;20138;-78
2021/10/29 14:32:49;;;;;;;7.68;5.35;;;19.70;64.70;;;;;;6217785;23;20153;-80
2021/10/29 14:35:18;;;;;;;6.85;4.88;;;19.70;65.00;;;;;;6218517;23;20169;-79
2021/10/29 14:37:58;;;;;;;6.80;5.03;;;19.70;65.30;;;;;;6219331;23;20126;-82
2021/10/29 14:40:32;;;;;;;7.22;5.10;;;19.80;65.60;;;;;;6219607;23;20272;-80
2021/10/29 14:43:14;;;;;;;6.97;5.13;;;19.70;64.90;;;;;;6218606;23;20137;-80
2021/10/29 14:48:28;;;;;;;6.95;5.00;;;19.70;64.90;;;;;;6216777;23;20134;-81
2021/10/29 15:07:16;;;;;;;7.00;5.00;;;19.70;64.90;;;;;;6221968;23;20509;-82
2021/10/29 15:15:37;;;;;;;6.53;5.28;;;19.90;64.70;;;;;;6219762;23;20134;-79
2021/10/29 15:18:06;;;;;;;7.15;5.35;;;19.90;64.80;;;;;;6188186;23;20269;-81
2021/10/29 15:28:53;;;;;;;7.20;4.75;;;19.90;65.40;;;;;;6189060;23;20190;-81
2021/10/29 15:31:35;;;;;;;6.53;4.63;;;19.90;65.00;;;;;;6166256;23;20221;-80
2021/10/29 15:44:52;;;;;;;6.68;5.25;;;20.00;64.90;;;;;;6189983;23;20230;-79
2021/10/29 15:47:33;;;;;;;9.05;5.13;;;20.00;64.60;;;;;;6167117;23;20131;-79
2021/10/29 15:50:06;;;;;;;6.60;5.15;;;20.00;64.60;;;;;;6220853;23;20195;-81
2021/10/29 15:52:32;;;;;;;6.38;4.63;;;20.00;64.60;;;;;;6218028;23;20166;-82
2021/10/29 15:55:03;;;;;;;8.20;5.30;;;20.00;64.60;;;;;;6219705;23;20216;-81
2021/10/29 15:57:34;;;;;;;10.85;5.20;;;20.00;64.70;;;;;;6221663;23;20248;-80
2021/10/29 16:00:17;;;;;;;7.38;4.85;;;20.00;64.90;;;;;;6198645;23;20264;-81
2021/10/29 16:02:48;;;;;;;6.65;5.03;;;20.00;64.80;;;;;;6196513;23;20138;-80
2021/10/29 16:18:49;;;;;;;10.95;5.63;;;20.00;65.10;;;;;;6249332;23;20216;-81
2021/10/29 16:21:14;;;;;;;12.80;5.20;;;19.90;65.30;;;;;;6222962;23;20208;-81
2021/10/29 16:23:40;;;;;;;7.20;5.35;;;20.00;65.50;;;;;;6246824;23;20130;-83
2021/10/29 16:26:11;;;;;;;9.15;5.32;;;19.90;64.80;;;;;;6219905;23;20130;-81
2021/10/29 16:28:38;;;;;;;8.32;4.82;;;20.00;65.70;;;;;;6248346;23;20164;-80
2021/10/29 16:31:04;;;;;;;8.00;5.22;;;19.90;65.50;;;;;;6194868;23;20153;-83
2021/10/29 16:33:33;;;;;;;9.57;5.13;;;20.00;65.30;;;;;;6220528;23;20221;-81
2021/10/29 16:35:59;;;;;;;6.90;5.03;;;19.90;65.50;;;;;;6250193;23;20129;-81